sensor_id;sensor_type;location;lat;lon;timestamp;temperature;humidity
58809;DHT22;44579;51.672;7.834;2023-04-07T00:00:23;8.40;56.90
58809;DHT22;44579;51.672;7.834;2023-04-07T00:02:50;8.40;56.90
58809;DHT22;44579;51.672;7.834;2023-04-07T00:05:17;8.40;57.10
58809;DHT22;44579;51.672;7.834;2023-04-07T00:07:44;8.30;57.10
58809;DHT22;44579;51.672;7.834;2023-04-07T00:10:22;8.30;57.10
58809;DHT22;44579;51.672;7.834;2023-04-07T00:12:49;8.30;57.20
58809;DHT22;44579;51.672;7.834;2023-04-07T00:15:16;8.30;57.30
58809;DHT22;44579;51.672;7.834;2023-04-07T00:17:43;8.30;57.30
58809;DHT22;44579;51.672;7.834;2023-04-07T00:20:10;8.30;57.30
58809;DHT22;44579;51.672;7.834;2023-04-07T00:22:37;8.30;57.40
58809;DHT22;44579;51.672;7.834;2023-04-07T00:25:04;8.40;57.30
58809;DHT22;44579;51.672;7.834;2023-04-07T00:27:31;8.40;57.30
58809;DHT22;44579;51.672;7.834;2023-04-07T00:29:58;8.40;57.40
58809;DHT22;44579;51.672;7.834;2023-04-07T00:32:24;8.30;57.50
58809;DHT22;44579;51.672;7.834;2023-04-07T00:34:51;8.30;57.70
58809;DHT22;44579;51.672;7.834;2023-04-07T00:37:18;8.20;57.80
58809;DHT22;44579;51.672;7.834;2023-04-07T00:39:45;8.20;58.00
58809;DHT22;44579;51.672;7.834;2023-04-07T00:42:12;8.20;58.10
58809;DHT22;44579;51.672;7.834;2023-04-07T00:44:39;8.20;58.00
58809;DHT22;44579;51.672;7.834;2023-04-07T00:47:07;8.20;58.00
58809;DHT22;44579;51.672;7.834;2023-04-07T00:49:33;8.20;58.20
58809;DHT22;44579;51.672;7.834;2023-04-07T00:52:02;8.20;58.30
58809;DHT22;44579;51.672;7.834;2023-04-07T00:54:30;8.20;58.20
58809;DHT22;44579;51.672;7.834;2023-04-07T00:56:56;8.20;58.20
58809;DHT22;44579;51.672;7.834;2023-04-07T00:59:24;8.20;58.20
58809;DHT22;44579;51.672;7.834;2023-04-07T01:01:58;8.20;58.40
58809;DHT22;44579;51.672;7.834;2023-04-07T01:07:00;8.10;58.50
58809;DHT22;44579;51.672;7.834;2023-04-07T01:09:36;8.10;58.60
58809;DHT22;44579;51.672;7.834;2023-04-07T01:14:53;8.10;58.70
58809;DHT22;44579;51.672;7.834;2023-04-07T01:17:33;8.20;58.70
58809;DHT22;44579;51.672;7.834;2023-04-07T01:20:03;8.10;58.70
58809;DHT22;44579;51.672;7.834;2023-04-07T01:22:56;8.10;58.70
58809;DHT22;44579;51.672;7.834;2023-04-07T01:25:37;8.10;58.80
58809;DHT22;44579;51.672;7.834;2023-04-07T01:28:13;8.10;58.90
58809;DHT22;44579;51.672;7.834;2023-04-07T01:30:41;8.10;59.00
58809;DHT22;44579;51.672;7.834;2023-04-07T01:33:09;8.10;58.90
58809;DHT22;44579;51.672;7.834;2023-04-07T01:35:37;8.10;59.00
58809;DHT22;44579;51.672;7.834;2023-04-07T01:38:04;8.10;59.10
58809;DHT22;44579;51.672;7.834;2023-04-07T01:40:32;8.10;59.30
58809;DHT22;44579;51.672;7.834;2023-04-07T01:43:00;8.10;59.40
58809;DHT22;44579;51.672;7.834;2023-04-07T01:45:27;8.00;60.10
58809;DHT22;44579;51.672;7.834;2023-04-07T01:47:55;8.00;59.50
58809;DHT22;44579;51.672;7.834;2023-04-07T01:50:22;8.00;59.50
58809;DHT22;44579;51.672;7.834;2023-04-07T01:52:49;8.10;59.60
58809;DHT22;44579;51.672;7.834;2023-04-07T01:55:16;8.10;59.60
58809;DHT22;44579;51.672;7.834;2023-04-07T01:58:03;8.10;59.60
58809;DHT22;44579;51.672;7.834;2023-04-07T02:00:29;8.10;59.70
58809;DHT22;44579;51.672;7.834;2023-04-07T02:02:58;8.10;59.80
58809;DHT22;44579;51.672;7.834;2023-04-07T02:05:25;8.10;59.70
58809;DHT22;44579;51.672;7.834;2023-04-07T02:08:03;8.10;59.80
58809;DHT22;44579;51.672;7.834;2023-04-07T02:10:34;8.10;59.80
58809;DHT22;44579;51.672;7.834;2023-04-07T02:13:05;8.20;59.80
58809;DHT22;44579;51.672;7.834;2023-04-07T02:15:35;8.20;59.80
58809;DHT22;44579;51.672;7.834;2023-04-07T02:18:03;8.10;59.80
58809;DHT22;44579;51.672;7.834;2023-04-07T02:20:32;8.20;59.90
58809;DHT22;44579;51.672;7.834;2023-04-07T02:23:01;8.10;60.80
58809;DHT22;44579;51.672;7.834;2023-04-07T02:25:29;8.10;60.00
58809;DHT22;44579;51.672;7.834;2023-04-07T02:27:57;8.10;60.10
58809;DHT22;44579;51.672;7.834;2023-04-07T02:30:24;8.10;60.20
58809;DHT22;44579;51.672;7.834;2023-04-07T02:32:52;8.20;60.20
58809;DHT22;44579;51.672;7.834;2023-04-07T02:35:19;8.10;60.10
58809;DHT22;44579;51.672;7.834;2023-04-07T02:37:48;8.20;60.10
58809;DHT22;44579;51.672;7.834;2023-04-07T02:40:15;8.20;60.20
58809;DHT22;44579;51.672;7.834;2023-04-07T02:42:42;8.20;60.10
58809;DHT22;44579;51.672;7.834;2023-04-07T02:45:09;8.10;60.10
58809;DHT22;44579;51.672;7.834;2023-04-07T02:47:36;8.20;60.30
58809;DHT22;44579;51.672;7.834;2023-04-07T02:50:03;8.10;60.20
58809;DHT22;44579;51.672;7.834;2023-04-07T02:52:33;8.10;60.30
58809;DHT22;44579;51.672;7.834;2023-04-07T02:55:03;8.10;60.40
58809;DHT22;44579;51.672;7.834;2023-04-07T02:57:30;8.10;60.60
58809;DHT22;44579;51.672;7.834;2023-04-07T03:00:01;8.00;60.70
58809;DHT22;44579;51.672;7.834;2023-04-07T03:02:42;8.00;60.90
58809;DHT22;44579;51.672;7.834;2023-04-07T03:05:09;8.00;61.20
58809;DHT22;44579;51.672;7.834;2023-04-07T03:07:36;8.00;61.40
58809;DHT22;44579;51.672;7.834;2023-04-07T03:10:03;7.90;61.50
58809;DHT22;44579;51.672;7.834;2023-04-07T03:12:32;7.90;61.70
58809;DHT22;44579;51.672;7.834;2023-04-07T03:14:58;8.00;61.80
58809;DHT22;44579;51.672;7.834;2023-04-07T03:17:25;8.00;61.70
58809;DHT22;44579;51.672;7.834;2023-04-07T03:19:52;8.00;61.80
58809;DHT22;44579;51.672;7.834;2023-04-07T03:22:19;8.00;61.80
58809;DHT22;44579;51.672;7.834;2023-04-07T03:24:50;8.00;62.00
58809;DHT22;44579;51.672;7.834;2023-04-07T03:27:19;8.00;62.10
58809;DHT22;44579;51.672;7.834;2023-04-07T03:29:47;7.90;62.30
58809;DHT22;44579;51.672;7.834;2023-04-07T03:32:16;7.90;62.50
58809;DHT22;44579;51.672;7.834;2023-04-07T03:34:43;7.90;62.60
58809;DHT22;44579;51.672;7.834;2023-04-07T03:37:11;7.90;62.70
58809;DHT22;44579;51.672;7.834;2023-04-07T03:39:41;7.90;62.80
58809;DHT22;44579;51.672;7.834;2023-04-07T03:42:24;7.90;63.00
58809;DHT22;44579;51.672;7.834;2023-04-07T03:44:57;7.90;63.00
58809;DHT22;44579;51.672;7.834;2023-04-07T03:47:24;7.90;63.10
58809;DHT22;44579;51.672;7.834;2023-04-07T03:49:55;7.90;63.20
58809;DHT22;44579;51.672;7.834;2023-04-07T03:52:22;7.90;63.30
58809;DHT22;44579;51.672;7.834;2023-04-07T03:54:54;7.90;63.40
58809;DHT22;44579;51.672;7.834;2023-04-07T03:57:26;7.90;63.60
58809;DHT22;44579;51.672;7.834;2023-04-07T03:59:53;7.90;63.70
58809;DHT22;44579;51.672;7.834;2023-04-07T04:02:21;7.90;63.80
58809;DHT22;44579;51.672;7.834;2023-04-07T04:04:51;7.90;63.70
58809;DHT22;44579;51.672;7.834;2023-04-07T04:07:20;7.90;63.70
58809;DHT22;44579;51.672;7.834;2023-04-07T04:09:49;7.90;63.70
58809;DHT22;44579;51.672;7.834;2023-04-07T04:12:17;8.00;63.70
58809;DHT22;44579;51.672;7.834;2023-04-07T04:14:56;8.00;63.70
58809;DHT22;44579;51.672;7.834;2023-04-07T04:17:23;8.00;63.60
58809;DHT22;44579;51.672;7.834;2023-04-07T04:19:51;8.00;63.60
58809;DHT22;44579;51.672;7.834;2023-04-07T04:22:40;8.00;63.70
58809;DHT22;44579;51.672;7.834;2023-04-07T04:25:07;8.00;63.70
58809;DHT22;44579;51.672;7.834;2023-04-07T04:27:33;8.00;63.90
58809;DHT22;44579;51.672;7.834;2023-04-07T04:30:07;8.00;64.00
58809;DHT22;44579;51.672;7.834;2023-04-07T04:32:41;8.00;64.10
58809;DHT22;44579;51.672;7.834;2023-04-07T04:35:09;7.90;64.30
58809;DHT22;44579;51.672;7.834;2023-04-07T04:37:44;8.00;64.40
58809;DHT22;44579;51.672;7.834;2023-04-07T04:40:13;8.00;64.40
58809;DHT22;44579;51.672;7.834;2023-04-07T04:42:43;7.90;64.50
58809;DHT22;44579;51.672;7.834;2023-04-07T04:45:11;7.90;64.70
58809;DHT22;44579;51.672;7.834;2023-04-07T04:47:43;7.90;64.90
58809;DHT22;44579;51.672;7.834;2023-04-07T04:50:11;7.90;65.20
58809;DHT22;44579;51.672;7.834;2023-04-07T04:52:40;7.80;65.60
58809;DHT22;44579;51.672;7.834;2023-04-07T04:55:14;7.80;65.90
58809;DHT22;44579;51.672;7.834;2023-04-07T04:57:42;7.80;65.90
58809;DHT22;44579;51.672;7.834;2023-04-07T05:00:12;7.80;65.90
58809;DHT22;44579;51.672;7.834;2023-04-07T05:02:42;7.80;65.90
58809;DHT22;44579;51.672;7.834;2023-04-07T05:05:09;7.80;66.90
58809;DHT22;44579;51.672;7.834;2023-04-07T05:07:36;7.80;66.10
58809;DHT22;44579;51.672;7.834;2023-04-07T05:10:05;7.80;66.20
58809;DHT22;44579;51.672;7.834;2023-04-07T05:12:34;7.80;66.30
58809;DHT22;44579;51.672;7.834;2023-04-07T05:15:01;7.80;66.50
58809;DHT22;44579;51.672;7.834;2023-04-07T05:17:28;7.80;66.50
58809;DHT22;44579;51.672;7.834;2023-04-07T05:19:58;7.80;66.40
58809;DHT22;44579;51.672;7.834;2023-04-07T05:22:35;7.90;66.50
58809;DHT22;44579;51.672;7.834;2023-04-07T05:25:03;7.80;66.40
58809;DHT22;44579;51.672;7.834;2023-04-07T05:27:30;7.90;66.30
58809;DHT22;44579;51.672;7.834;2023-04-07T05:30:01;7.90;66.40
58809;DHT22;44579;51.672;7.834;2023-04-07T05:32:32;7.80;66.40
58809;DHT22;44579;51.672;7.834;2023-04-07T05:35:06;7.90;66.40
58809;DHT22;44579;51.672;7.834;2023-04-07T05:37:37;7.90;66.40
58809;DHT22;44579;51.672;7.834;2023-04-07T05:40:06;7.90;66.40
58809;DHT22;44579;51.672;7.834;2023-04-07T05:42:32;7.90;66.60
58809;DHT22;44579;51.672;7.834;2023-04-07T05:45:01;7.90;66.60
58809;DHT22;44579;51.672;7.834;2023-04-07T05:47:28;7.90;66.60
58809;DHT22;44579;51.672;7.834;2023-04-07T05:49:55;7.90;66.60
58809;DHT22;44579;51.672;7.834;2023-04-07T05:52:22;7.90;66.60
58809;DHT22;44579;51.672;7.834;2023-04-07T05:54:57;8.00;66.80
58809;DHT22;44579;51.672;7.834;2023-04-07T05:57:28;7.90;66.80
58809;DHT22;44579;51.672;7.834;2023-04-07T05:59:56;7.90;66.90
58809;DHT22;44579;51.672;7.834;2023-04-07T06:02:23;8.00;67.30
58809;DHT22;44579;51.672;7.834;2023-04-07T06:04:51;8.00;67.20
58809;DHT22;44579;51.672;7.834;2023-04-07T06:07:19;8.00;67.30
58809;DHT22;44579;51.672;7.834;2023-04-07T06:09:46;8.00;67.60
58809;DHT22;44579;51.672;7.834;2023-04-07T06:12:13;8.00;68.00
58809;DHT22;44579;51.672;7.834;2023-04-07T06:14:42;8.00;68.00
58809;DHT22;44579;51.672;7.834;2023-04-07T06:17:09;8.00;68.00
58809;DHT22;44579;51.672;7.834;2023-04-07T06:19:35;8.10;67.90
58809;DHT22;44579;51.672;7.834;2023-04-07T06:22:02;8.00;67.90
58809;DHT22;44579;51.672;7.834;2023-04-07T06:24:29;8.00;67.80
58809;DHT22;44579;51.672;7.834;2023-04-07T06:26:56;8.10;67.80
58809;DHT22;44579;51.672;7.834;2023-04-07T06:29:23;8.10;67.80
58809;DHT22;44579;51.672;7.834;2023-04-07T06:31:50;8.10;67.80
58809;DHT22;44579;51.672;7.834;2023-04-07T06:34:18;8.20;68.10
58809;DHT22;44579;51.672;7.834;2023-04-07T06:36:44;8.20;68.20
58809;DHT22;44579;51.672;7.834;2023-04-07T06:39:12;8.20;68.30
58809;DHT22;44579;51.672;7.834;2023-04-07T06:41:38;8.10;68.40
58809;DHT22;44579;51.672;7.834;2023-04-07T06:44:08;8.10;68.70
58809;DHT22;44579;51.672;7.834;2023-04-07T06:46:36;8.20;68.70
58809;DHT22;44579;51.672;7.834;2023-04-07T06:49:03;8.20;68.80
58809;DHT22;44579;51.672;7.834;2023-04-07T06:51:30;8.30;68.80
58809;DHT22;44579;51.672;7.834;2023-04-07T06:53:58;8.30;69.00
58809;DHT22;44579;51.672;7.834;2023-04-07T06:56:25;8.30;69.20
58809;DHT22;44579;51.672;7.834;2023-04-07T06:58:52;8.30;69.20
58809;DHT22;44579;51.672;7.834;2023-04-07T07:01:19;8.40;69.80
58809;DHT22;44579;51.672;7.834;2023-04-07T07:03:46;8.40;69.80
58809;DHT22;44579;51.672;7.834;2023-04-07T07:06:14;8.40;70.00
58809;DHT22;44579;51.672;7.834;2023-04-07T07:08:40;8.50;70.10
58809;DHT22;44579;51.672;7.834;2023-04-07T07:11:07;8.60;70.10
58809;DHT22;44579;51.672;7.834;2023-04-07T07:13:34;8.60;70.20
58809;DHT22;44579;51.672;7.834;2023-04-07T07:16:01;8.70;70.30
58809;DHT22;44579;51.672;7.834;2023-04-07T07:18:28;8.70;70.40
58809;DHT22;44579;51.672;7.834;2023-04-07T07:20:57;8.80;70.40
58809;DHT22;44579;51.672;7.834;2023-04-07T07:23:24;8.80;70.80
58809;DHT22;44579;51.672;7.834;2023-04-07T07:25:50;8.80;71.40
58809;DHT22;44579;51.672;7.834;2023-04-07T07:28:17;8.80;72.00
58809;DHT22;44579;51.672;7.834;2023-04-07T07:30:44;8.90;72.20
58809;DHT22;44579;51.672;7.834;2023-04-07T07:33:10;8.90;72.60
58809;DHT22;44579;51.672;7.834;2023-04-07T07:35:37;8.90;72.90
58809;DHT22;44579;51.672;7.834;2023-04-07T07:38:04;9.10;72.90
58809;DHT22;44579;51.672;7.834;2023-04-07T07:40:31;9.20;72.60
58809;DHT22;44579;51.672;7.834;2023-04-07T07:43:01;9.20;72.90
58809;DHT22;44579;51.672;7.834;2023-04-07T07:45:29;9.20;73.50
58809;DHT22;44579;51.672;7.834;2023-04-07T07:47:56;9.20;73.80
58809;DHT22;44579;51.672;7.834;2023-04-07T07:50:22;9.20;74.10
58809;DHT22;44579;51.672;7.834;2023-04-07T07:52:49;9.30;74.00
58809;DHT22;44579;51.672;7.834;2023-04-07T07:55:16;9.30;74.20
58809;DHT22;44579;51.672;7.834;2023-04-07T07:57:43;9.30;74.40
58809;DHT22;44579;51.672;7.834;2023-04-07T08:00:10;9.30;75.30
58809;DHT22;44579;51.672;7.834;2023-04-07T08:02:40;9.30;74.60
58809;DHT22;44579;51.672;7.834;2023-04-07T08:05:07;9.40;74.90
58809;DHT22;44579;51.672;7.834;2023-04-07T08:07:34;9.40;75.10
58809;DHT22;44579;51.672;7.834;2023-04-07T08:10:01;9.40;75.20
58809;DHT22;44579;51.672;7.834;2023-04-07T08:12:27;9.50;75.20
58809;DHT22;44579;51.672;7.834;2023-04-07T08:14:54;9.50;75.30
58809;DHT22;44579;51.672;7.834;2023-04-07T08:17:21;9.60;75.50
58809;DHT22;44579;51.672;7.834;2023-04-07T08:19:48;9.60;75.60
58809;DHT22;44579;51.672;7.834;2023-04-07T08:22:15;9.70;76.00
58809;DHT22;44579;51.672;7.834;2023-04-07T08:24:41;9.70;76.80
58809;DHT22;44579;51.672;7.834;2023-04-07T08:27:08;9.70;76.90
58809;DHT22;44579;51.672;7.834;2023-04-07T08:29:35;9.80;77.10
58809;DHT22;44579;51.672;7.834;2023-04-07T08:32:01;9.80;77.20
58809;DHT22;44579;51.672;7.834;2023-04-07T08:34:28;9.90;77.20
58809;DHT22;44579;51.672;7.834;2023-04-07T08:36:55;9.80;77.40
58809;DHT22;44579;51.672;7.834;2023-04-07T08:39:24;9.80;77.70
58809;DHT22;44579;51.672;7.834;2023-04-07T08:41:51;9.90;77.60
58809;DHT22;44579;51.672;7.834;2023-04-07T08:44:18;9.90;77.50
58809;DHT22;44579;51.672;7.834;2023-04-07T08:46:47;9.90;77.90
58809;DHT22;44579;51.672;7.834;2023-04-07T08:49:14;9.90;78.20
58809;DHT22;44579;51.672;7.834;2023-04-07T08:51:46;9.90;78.20
58809;DHT22;44579;51.672;7.834;2023-04-07T08:54:14;9.80;78.20
58809;DHT22;44579;51.672;7.834;2023-04-07T08:56:41;9.80;78.30
58809;DHT22;44579;51.672;7.834;2023-04-07T08:59:14;9.80;78.70
58809;DHT22;44579;51.672;7.834;2023-04-07T09:01:43;9.80;78.60
58809;DHT22;44579;51.672;7.834;2023-04-07T09:04:12;9.80;78.70
58809;DHT22;44579;51.672;7.834;2023-04-07T09:06:39;9.80;78.80
58809;DHT22;44579;51.672;7.834;2023-04-07T09:09:08;9.70;79.00
58809;DHT22;44579;51.672;7.834;2023-04-07T09:11:37;9.80;79.10
58809;DHT22;44579;51.672;7.834;2023-04-07T09:14:04;9.90;78.90
58809;DHT22;44579;51.672;7.834;2023-04-07T09:16:31;9.90;78.60
58809;DHT22;44579;51.672;7.834;2023-04-07T09:18:58;10.00;78.70
58809;DHT22;44579;51.672;7.834;2023-04-07T09:21:25;10.00;78.80
58809;DHT22;44579;51.672;7.834;2023-04-07T09:23:52;9.90;79.20
58809;DHT22;44579;51.672;7.834;2023-04-07T09:26:20;9.90;79.60
58809;DHT22;44579;51.672;7.834;2023-04-07T09:28:49;10.00;79.80
58809;DHT22;44579;51.672;7.834;2023-04-07T09:31:16;10.00;79.80
58809;DHT22;44579;51.672;7.834;2023-04-07T09:33:43;10.10;79.70
58809;DHT22;44579;51.672;7.834;2023-04-07T09:36:10;10.10;79.80
58809;DHT22;44579;51.672;7.834;2023-04-07T09:38:39;10.10;80.10
58809;DHT22;44579;51.672;7.834;2023-04-07T09:41:10;10.10;80.10
58809;DHT22;44579;51.672;7.834;2023-04-07T09:43:41;10.10;80.10
58809;DHT22;44579;51.672;7.834;2023-04-07T09:48:37;10.10;80.20
58809;DHT22;44579;51.672;7.834;2023-04-07T09:51:05;10.10;80.20
58809;DHT22;44579;51.672;7.834;2023-04-07T09:53:42;10.10;80.20
58809;DHT22;44579;51.672;7.834;2023-04-07T09:56:09;10.20;80.00
58809;DHT22;44579;51.672;7.834;2023-04-07T09:58:37;10.20;79.60
58809;DHT22;44579;51.672;7.834;2023-04-07T10:01:08;10.20;80.00
58809;DHT22;44579;51.672;7.834;2023-04-07T10:03:35;10.20;80.20
58809;DHT22;44579;51.672;7.834;2023-04-07T10:06:03;10.20;80.00
58809;DHT22;44579;51.672;7.834;2023-04-07T10:08:30;10.20;79.70
58809;DHT22;44579;51.672;7.834;2023-04-07T10:10:58;10.20;79.70
58809;DHT22;44579;51.672;7.834;2023-04-07T10:13:27;10.20;80.00
58809;DHT22;44579;51.672;7.834;2023-04-07T10:15:54;10.20;80.00
58809;DHT22;44579;51.672;7.834;2023-04-07T10:18:22;10.20;79.90
58809;DHT22;44579;51.672;7.834;2023-04-07T10:20:51;10.20;80.00
58809;DHT22;44579;51.672;7.834;2023-04-07T10:26:04;10.10;80.30
58809;DHT22;44579;51.672;7.834;2023-04-07T10:28:33;10.10;80.50
58809;DHT22;44579;51.672;7.834;2023-04-07T10:31:03;10.20;80.60
58809;DHT22;44579;51.672;7.834;2023-04-07T10:33:43;10.20;80.60
58809;DHT22;44579;51.672;7.834;2023-04-07T10:36:12;10.20;80.50
58809;DHT22;44579;51.672;7.834;2023-04-07T10:38:39;10.20;80.50
58809;DHT22;44579;51.672;7.834;2023-04-07T10:43:53;10.20;80.90
58809;DHT22;44579;51.672;7.834;2023-04-07T10:46:20;10.20;81.10
58809;DHT22;44579;51.672;7.834;2023-04-07T10:49:06;10.20;81.00
58809;DHT22;44579;51.672;7.834;2023-04-07T10:51:34;10.30;80.70
58809;DHT22;44579;51.672;7.834;2023-04-07T10:54:17;10.20;81.20
58809;DHT22;44579;51.672;7.834;2023-04-07T10:59:28;10.10;82.00
58809;DHT22;44579;51.672;7.834;2023-04-07T11:04:43;10.10;82.00
58809;DHT22;44579;51.672;7.834;2023-04-07T11:07:12;10.10;82.00
58809;DHT22;44579;51.672;7.834;2023-04-07T11:09:39;10.20;82.10
58809;DHT22;44579;51.672;7.834;2023-04-07T11:12:07;10.20;82.10
58809;DHT22;44579;51.672;7.834;2023-04-07T11:14:34;10.20;82.10
58809;DHT22;44579;51.672;7.834;2023-04-07T11:17:03;10.20;82.10
58809;DHT22;44579;51.672;7.834;2023-04-07T11:19:30;10.20;82.10
58809;DHT22;44579;51.672;7.834;2023-04-07T11:22:21;10.20;82.00
58809;DHT22;44579;51.672;7.834;2023-04-07T11:24:49;10.20;82.10
58809;DHT22;44579;51.672;7.834;2023-04-07T11:27:16;10.30;82.10
58809;DHT22;44579;51.672;7.834;2023-04-07T11:29:43;10.30;81.80
58809;DHT22;44579;51.672;7.834;2023-04-07T11:32:09;10.30;81.50
58809;DHT22;44579;51.672;7.834;2023-04-07T11:34:36;10.30;81.40
58809;DHT22;44579;51.672;7.834;2023-04-07T11:37:19;10.30;81.40
58809;DHT22;44579;51.672;7.834;2023-04-07T11:39:56;10.30;81.40
58809;DHT22;44579;51.672;7.834;2023-04-07T11:42:30;10.30;81.60
58809;DHT22;44579;51.672;7.834;2023-04-07T11:44:57;10.30;81.60
58809;DHT22;44579;51.672;7.834;2023-04-07T11:47:37;10.20;81.40
58809;DHT22;44579;51.672;7.834;2023-04-07T11:50:05;10.20;81.40
58809;DHT22;44579;51.672;7.834;2023-04-07T11:52:41;10.10;81.60
58809;DHT22;44579;51.672;7.834;2023-04-07T11:55:21;10.10;81.90
58809;DHT22;44579;51.672;7.834;2023-04-07T11:57:50;10.10;82.10
58809;DHT22;44579;51.672;7.834;2023-04-07T12:00:17;10.10;82.40
58809;DHT22;44579;51.672;7.834;2023-04-07T12:02:45;10.20;82.20
58809;DHT22;44579;51.672;7.834;2023-04-07T12:05:12;10.20;82.10
58809;DHT22;44579;51.672;7.834;2023-04-07T12:07:39;10.20;82.20
58809;DHT22;44579;51.672;7.834;2023-04-07T12:10:18;10.30;82.40
58809;DHT22;44579;51.672;7.834;2023-04-07T12:12:45;10.30;82.30
58809;DHT22;44579;51.672;7.834;2023-04-07T12:15:13;10.30;82.10
58809;DHT22;44579;51.672;7.834;2023-04-07T12:17:46;10.40;82.00
58809;DHT22;44579;51.672;7.834;2023-04-07T12:20:14;10.40;82.20
58809;DHT22;44579;51.672;7.834;2023-04-07T12:22:41;10.50;82.30
58809;DHT22;44579;51.672;7.834;2023-04-07T12:25:08;10.50;82.10
58809;DHT22;44579;51.672;7.834;2023-04-07T12:27:35;10.50;82.10
58809;DHT22;44579;51.672;7.834;2023-04-07T12:30:09;10.50;82.10
58809;DHT22;44579;51.672;7.834;2023-04-07T12:32:37;10.50;82.10
58809;DHT22;44579;51.672;7.834;2023-04-07T12:35:04;10.50;82.10
58809;DHT22;44579;51.672;7.834;2023-04-07T12:37:31;10.50;82.00
58809;DHT22;44579;51.672;7.834;2023-04-07T12:39:58;10.50;82.00
58809;DHT22;44579;51.672;7.834;2023-04-07T12:42:26;10.50;82.20
58809;DHT22;44579;51.672;7.834;2023-04-07T12:44:53;10.40;82.50
58809;DHT22;44579;51.672;7.834;2023-04-07T12:47:19;10.50;82.80
58809;DHT22;44579;51.672;7.834;2023-04-07T12:49:47;10.50;82.60
58809;DHT22;44579;51.672;7.834;2023-04-07T12:52:15;10.60;82.40
58809;DHT22;44579;51.672;7.834;2023-04-07T12:54:42;10.60;82.50
58809;DHT22;44579;51.672;7.834;2023-04-07T12:57:11;10.60;82.70
58809;DHT22;44579;51.672;7.834;2023-04-07T12:59:38;10.60;82.90
58809;DHT22;44579;51.672;7.834;2023-04-07T13:02:04;10.70;83.00
58809;DHT22;44579;51.672;7.834;2023-04-07T13:04:32;10.80;82.80
58809;DHT22;44579;51.672;7.834;2023-04-07T13:07:01;10.80;82.70
58809;DHT22;44579;51.672;7.834;2023-04-07T13:09:28;10.90;82.80
58809;DHT22;44579;51.672;7.834;2023-04-07T13:11:55;10.90;82.90
58809;DHT22;44579;51.672;7.834;2023-04-07T13:14:23;10.80;83.10
58809;DHT22;44579;51.672;7.834;2023-04-07T13:16:50;10.90;83.30
58809;DHT22;44579;51.672;7.834;2023-04-07T13:19:17;10.90;83.30
58809;DHT22;44579;51.672;7.834;2023-04-07T13:21:45;10.80;83.40
58809;DHT22;44579;51.672;7.834;2023-04-07T13:24:14;10.80;83.30
58809;DHT22;44579;51.672;7.834;2023-04-07T13:26:40;10.80;83.30
58809;DHT22;44579;51.672;7.834;2023-04-07T13:29:07;10.70;83.40
58809;DHT22;44579;51.672;7.834;2023-04-07T13:31:34;10.70;83.50
58809;DHT22;44579;51.672;7.834;2023-04-07T13:34:01;10.70;83.60
58809;DHT22;44579;51.672;7.834;2023-04-07T13:36:28;10.70;83.70
58809;DHT22;44579;51.672;7.834;2023-04-07T13:38:56;10.70;83.60
58809;DHT22;44579;51.672;7.834;2023-04-07T13:41:23;10.70;83.50
58809;DHT22;44579;51.672;7.834;2023-04-07T13:43:50;10.80;83.40
58809;DHT22;44579;51.672;7.834;2023-04-07T13:46:17;10.80;83.30
58809;DHT22;44579;51.672;7.834;2023-04-07T13:48:53;10.80;83.40
58809;DHT22;44579;51.672;7.834;2023-04-07T13:51:20;10.80;83.50
58809;DHT22;44579;51.672;7.834;2023-04-07T13:53:47;10.80;83.50
58809;DHT22;44579;51.672;7.834;2023-04-07T13:56:14;10.80;83.50
58809;DHT22;44579;51.672;7.834;2023-04-07T13:58:41;10.80;83.60
58809;DHT22;44579;51.672;7.834;2023-04-07T14:01:08;10.80;83.50
58809;DHT22;44579;51.672;7.834;2023-04-07T14:03:35;10.90;83.40
58809;DHT22;44579;51.672;7.834;2023-04-07T14:06:02;10.90;83.30
58809;DHT22;44579;51.672;7.834;2023-04-07T14:08:29;11.00;83.30
58809;DHT22;44579;51.672;7.834;2023-04-07T14:10:55;10.90;83.40
58809;DHT22;44579;51.672;7.834;2023-04-07T14:13:22;11.00;83.40
58809;DHT22;44579;51.672;7.834;2023-04-07T14:15:49;11.00;83.30
58809;DHT22;44579;51.672;7.834;2023-04-07T14:18:16;11.10;83.10
58809;DHT22;44579;51.672;7.834;2023-04-07T14:20:43;11.10;82.70
58809;DHT22;44579;51.672;7.834;2023-04-07T14:23:10;11.20;82.60
58809;DHT22;44579;51.672;7.834;2023-04-07T14:25:37;11.30;82.50
58809;DHT22;44579;51.672;7.834;2023-04-07T14:28:03;11.30;82.30
58809;DHT22;44579;51.672;7.834;2023-04-07T14:30:30;11.40;82.30
58809;DHT22;44579;51.672;7.834;2023-04-07T14:32:57;11.40;82.10
58809;DHT22;44579;51.672;7.834;2023-04-07T14:35:24;11.40;82.00
58809;DHT22;44579;51.672;7.834;2023-04-07T14:37:51;11.40;81.90
58809;DHT22;44579;51.672;7.834;2023-04-07T14:40:18;11.50;81.80
58809;DHT22;44579;51.672;7.834;2023-04-07T14:42:47;11.50;81.90
58809;DHT22;44579;51.672;7.834;2023-04-07T14:45:15;11.50;81.80
58809;DHT22;44579;51.672;7.834;2023-04-07T14:47:43;11.50;81.80
58809;DHT22;44579;51.672;7.834;2023-04-07T14:50:10;11.40;81.90
58809;DHT22;44579;51.672;7.834;2023-04-07T14:52:36;11.40;82.00
58809;DHT22;44579;51.672;7.834;2023-04-07T14:55:03;11.50;82.10
58809;DHT22;44579;51.672;7.834;2023-04-07T14:57:30;11.50;82.00
58809;DHT22;44579;51.672;7.834;2023-04-07T14:59:57;11.60;82.00
58809;DHT22;44579;51.672;7.834;2023-04-07T15:02:23;11.50;81.90
58809;DHT22;44579;51.672;7.834;2023-04-07T15:04:50;11.50;82.00
58809;DHT22;44579;51.672;7.834;2023-04-07T15:07:17;11.50;82.10
58809;DHT22;44579;51.672;7.834;2023-04-07T15:09:45;11.50;82.00
58809;DHT22;44579;51.672;7.834;2023-04-07T15:12:12;11.60;82.00
58809;DHT22;44579;51.672;7.834;2023-04-07T15:14:39;11.60;81.90
58809;DHT22;44579;51.672;7.834;2023-04-07T15:17:06;11.60;81.80
58809;DHT22;44579;51.672;7.834;2023-04-07T15:19:33;11.60;81.70
58809;DHT22;44579;51.672;7.834;2023-04-07T15:21:59;11.60;81.60
58809;DHT22;44579;51.672;7.834;2023-04-07T15:24:26;11.70;81.60
58809;DHT22;44579;51.672;7.834;2023-04-07T15:26:53;11.70;81.50
58809;DHT22;44579;51.672;7.834;2023-04-07T15:29:20;11.70;81.30
58809;DHT22;44579;51.672;7.834;2023-04-07T15:31:46;11.70;81.20
58809;DHT22;44579;51.672;7.834;2023-04-07T15:34:13;11.70;81.20
58809;DHT22;44579;51.672;7.834;2023-04-07T15:36:40;11.70;81.10
58809;DHT22;44579;51.672;7.834;2023-04-07T15:39:07;11.70;81.00
58809;DHT22;44579;51.672;7.834;2023-04-07T15:41:33;11.70;81.00
58809;DHT22;44579;51.672;7.834;2023-04-07T15:44:01;11.70;81.00
58809;DHT22;44579;51.672;7.834;2023-04-07T15:46:28;11.80;81.00
58809;DHT22;44579;51.672;7.834;2023-04-07T15:48:55;11.80;80.90
58809;DHT22;44579;51.672;7.834;2023-04-07T15:51:22;11.80;80.80
58809;DHT22;44579;51.672;7.834;2023-04-07T15:53:49;11.80;80.70
58809;DHT22;44579;51.672;7.834;2023-04-07T15:56:17;11.80;80.70
58809;DHT22;44579;51.672;7.834;2023-04-07T15:58:43;11.80;80.60
58809;DHT22;44579;51.672;7.834;2023-04-07T16:01:13;11.80;80.60
58809;DHT22;44579;51.672;7.834;2023-04-07T16:03:40;11.80;80.60
58809;DHT22;44579;51.672;7.834;2023-04-07T16:06:07;11.80;80.60